createdAt,value
2019-05-15T00:00:12.660Z,9.82
2019-05-15T00:02:49.601Z,9.82
2019-05-15T00:05:20.341Z,9.72
2019-05-15T00:07:50.968Z,9.80
2019-05-15T00:10:21.656Z,9.83
2019-05-15T00:12:54.185Z,9.82
2019-05-15T00:15:24.765Z,9.80
2019-05-15T00:17:57.781Z,9.83
2019-05-15T00:20:34.111Z,9.82
2019-05-15T00:23:10.030Z,9.83
2019-05-15T00:25:40.734Z,9.77
2019-05-15T00:28:11.407Z,9.78
2019-05-15T00:30:42.142Z,9.77
2019-05-15T00:33:12.817Z,9.78
2019-05-15T00:35:43.513Z,9.74
2019-05-15T00:38:14.100Z,9.71
2019-05-15T00:40:44.778Z,9.69
2019-05-15T00:43:15.344Z,9.61
2019-05-15T00:45:46.036Z,9.64
2019-05-15T00:48:18.678Z,9.66
2019-05-15T00:50:50.360Z,9.69
2019-05-15T00:53:20.962Z,9.76
2019-05-15T00:55:51.623Z,9.74
2019-05-15T00:58:22.223Z,9.76
2019-05-15T01:00:52.939Z,9.81
2019-05-15T01:03:23.511Z,9.74
2019-05-15T01:05:54.123Z,9.81
2019-05-15T01:08:24.817Z,9.83
2019-05-15T01:10:55.381Z,9.86
2019-05-15T01:13:28.160Z,9.89
2019-05-15T01:15:59.455Z,9.93
2019-05-15T01:18:29.976Z,9.95
2019-05-15T01:21:04.510Z,9.91
2019-05-15T01:23:35.162Z,9.89
2019-05-15T01:26:08.165Z,9.88
2019-05-15T01:28:38.598Z,9.86
2019-05-15T01:31:09.225Z,9.80
2019-05-15T01:33:39.913Z,9.83
2019-05-15T01:36:10.484Z,9.80
2019-05-15T01:38:41.037Z,9.81
2019-05-15T01:41:11.731Z,9.77
2019-05-15T01:43:42.380Z,9.72
2019-05-15T01:46:39.381Z,9.65
2019-05-15T01:49:09.771Z,9.64
2019-05-15T01:51:40.354Z,9.56
2019-05-15T01:54:10.820Z,9.52
2019-05-15T01:56:41.471Z,9.54
2019-05-15T01:59:13.076Z,9.50
2019-05-15T02:01:52.816Z,9.40
2019-05-15T02:04:28.960Z,9.37
2019-05-15T02:07:00.786Z,9.23
2019-05-15T02:09:31.435Z,9.07
2019-05-15T02:12:08.959Z,8.99
2019-05-15T02:14:39.638Z,8.92
2019-05-15T02:17:11.337Z,8.91
2019-05-15T02:19:42.031Z,8.74
2019-05-15T02:22:18.963Z,8.67
2019-05-15T02:24:49.380Z,8.68
2019-05-15T02:27:19.959Z,8.61
2019-05-15T02:30:16.363Z,8.60
2019-05-15T02:32:39.087Z,8.66
2019-05-15T02:35:09.989Z,8.55
2019-05-15T02:37:41.599Z,8.59
2019-05-15T02:40:12.313Z,8.64
2019-05-15T02:42:49.297Z,8.60
2019-05-15T02:45:19.809Z,8.57
2019-05-15T02:47:50.950Z,8.64
2019-05-15T02:50:23.456Z,8.61
2019-05-15T02:52:54.148Z,8.56
2019-05-15T02:55:24.797Z,8.57
2019-05-15T02:57:58.889Z,8.59
2019-05-15T03:00:37.725Z,8.61
2019-05-15T03:03:00.464Z,8.59
2019-05-15T03:05:40.710Z,8.61
2019-05-15T03:08:19.510Z,8.59
2019-05-15T03:10:50.332Z,8.57
2019-05-15T03:13:23.190Z,8.59
2019-05-15T03:15:53.788Z,8.61
2019-05-15T03:18:30.006Z,8.60
2019-05-15T03:21:00.679Z,8.61
2019-05-15T03:23:31.311Z,8.68
2019-05-15T03:26:04.409Z,8.65
2019-05-15T03:28:34.363Z,8.66
2019-05-15T03:31:25.897Z,8.66
2019-05-15T03:33:44.915Z,8.67
2019-05-15T03:36:13.666Z,8.62
2019-05-15T03:38:44.170Z,8.59
2019-05-15T03:41:14.815Z,8.59
2019-05-15T03:44:09.439Z,8.61
2019-05-15T03:46:42.238Z,8.57
2019-05-15T03:49:12.860Z,8.57
2019-05-15T03:51:45.845Z,8.54
2019-05-15T03:54:18.922Z,8.58
2019-05-15T03:56:50.836Z,8.57
2019-05-15T03:59:32.678Z,8.57
2019-05-15T04:02:11.233Z,8.55
2019-05-15T04:04:41.967Z,8.56
2019-05-15T04:07:18.600Z,8.54
2019-05-15T04:09:52.381Z,8.54
2019-05-15T04:12:29.213Z,8.54
2019-05-15T04:15:05.514Z,8.47
2019-05-15T04:17:39.608Z,8.53
2019-05-15T04:20:11.696Z,8.54
2019-05-15T04:22:42.353Z,8.52
2019-05-15T04:25:19.128Z,8.50
2019-05-15T04:27:50.165Z,8.53
2019-05-15T04:30:20.749Z,8.55
2019-05-15T04:32:51.367Z,8.54
2019-05-15T04:35:22.018Z,8.56
2019-05-15T04:37:52.632Z,8.59
2019-05-15T04:40:24.341Z,8.54
2019-05-15T04:42:59.327Z,8.55
2019-05-15T04:45:34.759Z,8.47
2019-05-15T04:48:10.451Z,8.54
2019-05-15T04:50:43.887Z,8.49
2019-05-15T04:53:21.682Z,8.61
2019-05-15T04:55:52.423Z,8.53
2019-05-15T04:58:33.578Z,8.61
2019-05-15T05:01:04.264Z,8.65
2019-05-15T05:03:35.104Z,8.75
2019-05-15T05:06:09.709Z,8.80
2019-05-15T05:08:49.045Z,8.83
2019-05-15T05:11:23.868Z,8.91
2019-05-15T05:14:01.952Z,9.00
2019-05-15T05:16:41.985Z,9.03
2019-05-15T05:19:22.936Z,9.03
2019-05-15T05:21:53.677Z,9.15
2019-05-15T05:24:24.407Z,9.27
2019-05-15T05:27:00.243Z,9.28
2019-05-15T05:29:38.644Z,9.35
2019-05-15T05:32:09.368Z,9.40
2019-05-15T05:35:04.101Z,9.52
2019-05-15T05:37:34.711Z,9.59
2019-05-15T05:40:08.054Z,9.70
2019-05-15T05:42:39.121Z,9.74
2019-05-15T05:45:10.498Z,9.79
2019-05-15T05:47:43.209Z,9.86
2019-05-15T05:50:19.586Z,10.02
2019-05-15T05:52:50.340Z,10.13
2019-05-15T05:55:21.075Z,10.11
2019-05-15T05:58:05.177Z,10.15
2019-05-15T06:00:41.109Z,10.19
2019-05-15T06:03:11.923Z,10.29
2019-05-15T06:05:42.801Z,10.42
2019-05-15T06:08:13.485Z,10.49
2019-05-15T06:10:49.695Z,10.34
2019-05-15T06:13:20.715Z,10.39
2019-05-15T06:16:04.014Z,10.40
2019-05-15T06:18:38.811Z,10.48
2019-05-15T06:21:17.809Z,10.57
2019-05-15T06:23:55.048Z,10.22
2019-05-15T06:26:22.120Z,10.37
2019-05-15T06:28:52.901Z,10.48
2019-05-15T06:31:23.621Z,10.56
2019-05-15T06:33:54.299Z,10.67
2019-05-15T06:36:25.013Z,10.80
2019-05-15T06:38:55.793Z,10.96
2019-05-15T06:41:28.641Z,10.98
2019-05-15T06:43:59.351Z,10.80
2019-05-15T06:46:29.946Z,10.97
2019-05-15T06:49:00.704Z,10.77
2019-05-15T06:51:31.355Z,10.80
2019-05-15T06:54:02.053Z,10.74
2019-05-15T06:56:32.783Z,10.99
2019-05-15T06:59:03.346Z,11.20
2019-05-15T07:01:34.000Z,10.87
2019-05-15T07:04:11.112Z,11.21
2019-05-15T07:07:01.413Z,11.29
2019-05-15T07:09:38.034Z,11.45
2019-05-15T07:12:11.655Z,11.33
2019-05-15T07:14:42.602Z,11.30
2019-05-15T07:17:13.330Z,11.23
2019-05-15T07:19:43.971Z,11.08
2019-05-15T07:22:21.573Z,11.23
2019-05-15T07:24:52.291Z,11.31
2019-05-15T07:27:22.957Z,11.45
2019-05-15T07:29:54.663Z,11.42
2019-05-15T07:32:34.454Z,11.57
2019-05-15T07:35:05.592Z,11.36
2019-05-15T07:37:38.803Z,11.42
2019-05-15T07:40:13.442Z,11.44
2019-05-15T07:42:44.185Z,11.55
2019-05-15T07:45:15.057Z,11.45
2019-05-15T07:47:45.724Z,11.54
2019-05-15T07:50:16.563Z,11.69
2019-05-15T07:52:48.543Z,11.70
2019-05-15T07:55:19.473Z,11.79
2019-05-15T07:57:53.206Z,11.76
2019-05-15T08:00:24.056Z,11.82
2019-05-15T08:02:54.658Z,11.84
2019-05-15T08:05:28.502Z,11.82
2019-05-15T08:08:00.887Z,11.78
2019-05-15T08:10:31.753Z,11.86
2019-05-15T08:13:02.533Z,12.10
2019-05-15T08:15:38.118Z,12.12
2019-05-15T08:18:12.677Z,12.13
2019-05-15T08:20:41.433Z,12.17
2019-05-15T08:23:12.010Z,12.06
2019-05-15T08:25:42.572Z,12.26
2019-05-15T08:28:13.384Z,12.40
2019-05-15T08:30:44.082Z,12.34
2019-05-15T08:33:14.904Z,12.52
2019-05-15T08:35:51.770Z,12.65
2019-05-15T08:38:21.776Z,12.74
2019-05-15T08:40:52.520Z,12.38
2019-05-15T08:43:31.389Z,12.55
2019-05-15T08:46:01.731Z,12.52
2019-05-15T08:48:32.945Z,12.62
2019-05-15T08:51:05.910Z,12.58
2019-05-15T08:53:38.008Z,12.67
2019-05-15T08:56:08.900Z,12.56
2019-05-15T08:58:39.542Z,12.74
2019-05-15T09:01:11.253Z,12.55
2019-05-15T09:03:42.065Z,12.55
2019-05-15T09:06:12.725Z,12.66
2019-05-15T09:08:43.304Z,12.71
2019-05-15T09:11:14.350Z,12.75
2019-05-15T09:13:44.951Z,12.65
2019-05-15T09:16:18.687Z,12.53
2019-05-15T09:18:49.459Z,12.61
2019-05-15T09:21:20.143Z,12.71
2019-05-15T09:23:50.747Z,12.65
2019-05-15T09:26:21.528Z,12.62
2019-05-15T09:28:52.184Z,12.38
2019-05-15T09:31:22.935Z,12.47
2019-05-15T09:33:53.568Z,12.63
2019-05-15T09:36:24.302Z,12.70
2019-05-15T09:38:54.985Z,12.76
2019-05-15T09:41:28.640Z,12.65
2019-05-15T09:44:08.523Z,12.78
2019-05-15T09:46:39.169Z,12.76
2019-05-15T09:49:10.868Z,12.73
2019-05-15T09:51:41.608Z,12.84
2019-05-15T09:54:12.257Z,12.76
2019-05-15T09:56:43.118Z,12.86
2019-05-15T09:59:28.149Z,12.92
2019-05-15T10:02:03.045Z,12.92
2019-05-15T10:04:33.772Z,12.97
2019-05-15T10:07:08.059Z,13.11
2019-05-15T10:09:39.005Z,13.03
2019-05-15T10:12:09.838Z,13.08
2019-05-15T10:14:40.544Z,12.93
2019-05-15T10:17:12.240Z,12.83
2019-05-15T10:19:50.476Z,12.93
2019-05-15T10:22:21.157Z,13.06
2019-05-15T10:24:51.860Z,13.14
2019-05-15T10:27:22.542Z,13.18
2019-05-15T10:29:54.322Z,13.14
2019-05-15T10:32:28.775Z,13.27
2019-05-15T10:34:59.251Z,13.48
2019-05-15T10:37:30.916Z,13.54
2019-05-15T10:40:02.586Z,13.47
2019-05-15T10:42:33.402Z,13.55
2019-05-15T10:45:04.829Z,13.52
2019-05-15T10:47:38.845Z,13.27
2019-05-15T10:50:10.068Z,13.36
2019-05-15T10:52:44.205Z,13.43
2019-05-15T10:55:18.885Z,13.60
2019-05-15T10:57:50.228Z,13.70
2019-05-15T11:00:22.813Z,13.52
2019-05-15T11:03:04.005Z,13.54
2019-05-15T11:05:45.182Z,13.59
2019-05-15T11:08:13.826Z,13.82
2019-05-15T11:10:44.851Z,13.79
2019-05-15T11:13:18.934Z,13.88
2019-05-15T11:15:51.858Z,13.95
2019-05-15T11:18:25.177Z,14.09
2019-05-15T11:20:59.742Z,14.12
2019-05-15T11:23:33.600Z,14.16
2019-05-15T11:26:05.848Z,14.01
2019-05-15T11:28:39.338Z,14.04
2019-05-15T11:31:13.187Z,13.99
2019-05-15T11:33:49.100Z,14.09
2019-05-15T11:36:22.773Z,14.21
2019-05-15T11:38:55.156Z,14.25
2019-05-15T11:41:29.548Z,14.32
2019-05-15T11:44:01.325Z,14.31
2019-05-15T11:46:42.484Z,14.39
2019-05-15T11:49:32.893Z,14.66
2019-05-15T11:52:05.715Z,14.56
2019-05-15T11:54:38.538Z,14.56
2019-05-15T11:57:14.634Z,14.55
2019-05-15T11:59:46.416Z,14.63
2019-05-15T12:02:18.881Z,14.69
2019-05-15T12:04:49.738Z,14.76
2019-05-15T12:07:20.415Z,14.77
2019-05-15T12:09:51.152Z,14.70
2019-05-15T12:12:21.952Z,14.80
2019-05-15T12:14:57.244Z,14.90
2019-05-15T12:17:28.583Z,14.96
2019-05-15T12:20:05.667Z,15.11
2019-05-15T12:22:32.681Z,15.16
2019-05-15T12:25:03.410Z,15.16
2019-05-15T12:27:35.100Z,15.25
2019-05-15T12:30:09.800Z,15.14
2019-05-15T12:32:40.425Z,15.33
2019-05-15T12:35:11.911Z,15.28
2019-05-15T12:37:44.476Z,15.35
2019-05-15T13:00:42.070Z,15.51
2019-05-15T13:03:28.952Z,15.55
2019-05-15T13:05:59.458Z,15.55
2019-05-15T13:08:30.047Z,15.53
2019-05-15T13:11:01.021Z,15.60
2019-05-15T13:13:31.656Z,15.74
2019-05-15T13:16:02.656Z,15.77
2019-05-15T13:18:33.312Z,15.83
2019-05-15T13:21:04.080Z,15.87
2019-05-15T13:23:34.634Z,15.79
2019-05-15T13:26:12.723Z,15.96
2019-05-15T13:28:38.688Z,16.11
2019-05-15T13:31:09.398Z,16.12
2019-05-15T13:33:40.099Z,16.17
2019-05-15T13:36:10.727Z,16.20
2019-05-15T13:38:41.424Z,16.19
2019-05-15T13:41:13.023Z,16.23
2019-05-15T13:43:49.091Z,16.22
2019-05-15T13:46:20.725Z,16.19
2019-05-15T13:48:52.673Z,16.12
2019-05-15T13:51:23.370Z,15.91
2019-05-15T13:53:55.141Z,15.95
2019-05-15T13:56:25.813Z,16.08
2019-05-15T13:58:58.544Z,16.16
2019-05-15T14:01:29.714Z,16.20
2019-05-15T14:04:00.394Z,16.28
2019-05-15T14:06:32.109Z,16.25
2019-05-15T14:09:03.144Z,16.26
2019-05-15T14:11:34.421Z,16.23
2019-05-15T14:14:05.283Z,16.18
2019-05-15T14:16:38.371Z,16.04
2019-05-15T14:19:10.910Z,16.05
2019-05-15T14:21:41.582Z,16.14
2019-05-15T14:24:13.246Z,16.18
2019-05-15T14:26:44.837Z,16.26
2019-05-15T14:29:15.496Z,16.36
2019-05-15T14:31:48.333Z,16.42
2019-05-15T14:34:18.812Z,16.38
2019-05-15T14:36:49.531Z,16.34
2019-05-15T14:39:21.009Z,16.32
2019-05-15T14:41:51.815Z,16.34
2019-05-15T14:44:22.319Z,16.24
2019-05-15T14:46:52.915Z,16.23
2019-05-15T14:49:23.532Z,16.27
2019-05-15T14:52:05.638Z,16.24
2019-05-15T14:54:29.051Z,16.20
2019-05-15T14:57:04.560Z,16.29
2019-05-15T14:59:39.383Z,16.23
2019-05-15T15:02:09.993Z,16.29
2019-05-15T15:04:40.675Z,16.29
2019-05-15T15:07:11.503Z,16.29
2019-05-15T15:09:47.786Z,16.36
2019-05-15T15:12:18.986Z,16.20
2019-05-15T15:14:49.591Z,16.24
2019-05-15T15:17:23.528Z,16.34
2019-05-15T15:20:02.182Z,16.37
2019-05-15T15:22:33.047Z,16.32
2019-05-15T15:25:04.094Z,16.28
2019-05-15T15:27:34.825Z,16.28
2019-05-15T15:30:09.331Z,16.16
2019-05-15T15:32:40.312Z,16.06
2019-05-15T15:35:10.991Z,16.12
2019-05-15T15:37:41.674Z,16.16
2019-05-15T15:40:13.372Z,16.16
2019-05-15T15:42:44.050Z,16.08
2019-05-15T15:45:15.551Z,16.08
2019-05-15T15:47:51.237Z,16.10
2019-05-15T15:50:21.881Z,16.07
2019-05-15T15:52:52.515Z,16.12
2019-05-15T15:55:23.229Z,16.07
2019-05-15T15:57:54.624Z,15.99
2019-05-15T16:00:25.320Z,15.91
2019-05-15T16:02:56.403Z,15.91
2019-05-15T16:05:29.092Z,16.01
2019-05-15T16:08:08.256Z,15.87
2019-05-15T16:10:38.253Z,15.97
2019-05-15T16:13:09.801Z,16.05
2019-05-15T16:15:40.737Z,15.94
2019-05-15T16:18:18.486Z,15.92
2019-05-15T16:20:49.186Z,16.08
2019-05-15T16:23:19.806Z,15.92
2019-05-15T16:25:50.472Z,15.95
2019-05-15T16:28:21.164Z,16.01
2019-05-15T16:30:51.857Z,16.01
2019-05-15T16:33:22.594Z,16.00
2019-05-15T16:35:53.175Z,15.97
2019-05-15T16:38:28.229Z,16.02
2019-05-15T16:40:58.503Z,16.01
2019-05-15T16:43:30.355Z,16.09
2019-05-15T16:46:00.944Z,15.98
2019-05-15T16:48:31.465Z,15.98
2019-05-15T16:51:02.167Z,15.91
2019-05-15T16:53:32.810Z,15.63
2019-05-15T16:56:03.582Z,15.61
2019-05-15T16:58:34.228Z,15.64
2019-05-15T17:01:04.985Z,15.72
2019-05-15T17:03:37.902Z,15.69
2019-05-15T17:06:10.097Z,15.75
2019-05-15T17:08:40.760Z,15.81
2019-05-15T17:11:11.332Z,15.88
2019-05-15T17:13:42.151Z,15.91
2019-05-15T17:16:13.748Z,16.07
2019-05-15T17:18:44.514Z,15.91
2019-05-15T17:21:15.214Z,15.82
2019-05-15T17:23:51.445Z,15.88
2019-05-15T17:26:23.982Z,15.79
2019-05-15T17:28:54.741Z,15.69
2019-05-15T17:31:25.305Z,15.70
2019-05-15T17:33:58.295Z,15.65
2019-05-15T17:36:32.012Z,15.73
2019-05-15T17:39:01.341Z,15.66
2019-05-15T17:41:40.557Z,15.65
2019-05-15T17:44:11.279Z,15.60
2019-05-15T17:46:42.258Z,15.69
2019-05-15T17:49:17.999Z,15.63
2019-05-15T17:51:48.955Z,15.57
2019-05-15T17:54:19.637Z,15.53
2019-05-15T17:56:58.457Z,15.50
2019-05-15T17:59:28.814Z,15.47
2019-05-15T18:01:59.716Z,15.44
2019-05-15T18:04:32.253Z,15.43
2019-05-15T18:07:08.761Z,15.26
2019-05-15T18:09:50.291Z,15.22
2019-05-15T18:12:15.247Z,15.14
2019-05-15T18:14:47.764Z,15.08
2019-05-15T18:17:18.651Z,14.94
2019-05-15T18:19:51.906Z,15.04
2019-05-15T18:22:23.911Z,14.98
2019-05-15T18:24:54.712Z,14.94
2019-05-15T18:27:26.411Z,14.91
2019-05-15T18:29:58.389Z,14.87
2019-05-15T18:32:32.157Z,14.87
2019-05-15T18:35:02.757Z,14.84
2019-05-15T18:37:34.711Z,15.00
2019-05-15T18:40:09.018Z,14.97
2019-05-15T18:42:39.100Z,14.90
2019-05-15T18:45:17.885Z,14.83
2019-05-15T18:47:48.317Z,14.81
2019-05-15T18:50:20.089Z,14.74
2019-05-15T18:52:50.738Z,14.74
2019-05-15T18:55:21.314Z,14.77
2019-05-15T18:57:52.090Z,14.75
2019-05-15T19:00:22.674Z,14.68
2019-05-15T19:02:53.247Z,14.63
2019-05-15T19:05:23.975Z,14.60
2019-05-15T19:07:54.701Z,14.53
2019-05-15T19:10:27.974Z,14.51
2019-05-15T19:12:59.363Z,14.47
2019-05-15T19:15:30.463Z,14.42
2019-05-15T19:18:07.841Z,14.34
2019-05-15T19:20:39.080Z,14.23
2019-05-15T19:23:10.388Z,14.23
2019-05-15T19:25:41.381Z,14.20
2019-05-15T19:28:12.115Z,14.08
2019-05-15T19:30:42.926Z,14.02
2019-05-15T19:33:13.918Z,13.97
2019-05-15T19:35:44.682Z,13.88
2019-05-15T19:38:18.568Z,13.88
2019-05-15T19:40:50.413Z,13.86
2019-05-15T19:43:21.091Z,13.77
2019-05-15T19:45:51.803Z,13.71
2019-05-15T19:48:22.619Z,13.61
2019-05-15T19:50:53.207Z,13.59
2019-05-15T19:53:23.877Z,13.51
2019-05-15T19:55:54.559Z,13.47
2019-05-15T19:58:28.660Z,13.39
2019-05-15T20:00:59.386Z,13.37
2019-05-15T20:03:32.168Z,13.36
2019-05-15T20:06:02.836Z,13.30
2019-05-15T20:08:33.680Z,13.21
2019-05-15T20:11:06.190Z,13.16
2019-05-15T20:13:38.383Z,13.14
2019-05-15T20:16:09.441Z,12.99
2019-05-15T20:18:42.117Z,12.98
2019-05-15T20:21:12.949Z,12.81
2019-05-15T20:23:43.885Z,12.85
2019-05-15T20:26:17.937Z,12.75
2019-05-15T20:28:49.144Z,12.75
2019-05-15T20:31:19.907Z,12.62
2019-05-15T20:34:02.390Z,12.56
2019-05-15T20:36:25.383Z,12.56
2019-05-15T20:38:58.828Z,12.56
2019-05-15T20:41:30.549Z,12.49
2019-05-15T20:44:01.538Z,12.45
2019-05-15T20:46:32.489Z,12.40
2019-05-15T20:49:04.663Z,12.34
2019-05-15T20:51:38.960Z,12.32
2019-05-15T20:54:09.349Z,12.30
2019-05-15T20:56:39.959Z,12.21
2019-05-15T20:59:18.084Z,12.15
2019-05-15T21:01:50.778Z,12.10
2019-05-15T21:04:23.878Z,12.14
2019-05-15T21:06:53.323Z,12.06
2019-05-15T21:09:30.196Z,12.05
2019-05-15T21:11:59.440Z,11.86
2019-05-15T21:14:32.293Z,11.82
2019-05-15T21:17:04.029Z,11.84
2019-05-15T21:19:34.911Z,11.84
2019-05-15T21:22:05.501Z,11.79
2019-05-15T21:24:37.924Z,11.71
2019-05-15T21:27:12.467Z,11.64
2019-05-15T21:29:45.096Z,11.67
2019-05-15T21:32:19.645Z,11.61
2019-05-15T21:34:50.858Z,11.52
2019-05-15T21:37:21.881Z,11.50
2019-05-15T21:39:52.533Z,11.53
2019-05-15T21:42:23.710Z,11.55
2019-05-15T21:44:54.340Z,11.50
2019-05-15T21:47:28.087Z,11.49
2019-05-15T21:50:04.703Z,11.44
2019-05-15T21:52:35.357Z,11.41
2019-05-15T21:55:08.933Z,11.40
2019-05-15T21:57:41.309Z,11.38
2019-05-15T22:00:18.107Z,11.29
2019-05-15T22:02:50.781Z,11.24
2019-05-15T22:05:21.486Z,11.25
2019-05-15T22:07:52.498Z,11.24
2019-05-15T22:10:23.620Z,11.22
2019-05-15T22:12:54.197Z,11.20
2019-05-15T22:15:28.971Z,11.14
2019-05-15T22:18:00.182Z,11.18
2019-05-15T22:20:32.889Z,11.15
2019-05-15T22:23:13.497Z,11.14
2019-05-15T22:25:51.811Z,11.12
2019-05-15T22:28:22.554Z,11.17
2019-05-15T22:30:55.301Z,11.18
2019-05-15T22:33:28.252Z,11.14
2019-05-15T22:35:59.293Z,11.14
2019-05-15T22:38:30.417Z,11.15
2019-05-15T22:41:01.227Z,11.10
2019-05-15T22:43:39.212Z,11.12
2019-05-15T22:46:10.938Z,11.09
2019-05-15T22:48:42.432Z,11.13
2019-05-15T22:51:18.215Z,11.08
2019-05-15T22:53:48.937Z,11.08
2019-05-15T22:56:22.132Z,11.09
2019-05-15T22:58:55.073Z,11.07
2019-05-15T23:01:25.880Z,11.06
2019-05-15T23:03:58.344Z,11.02
2019-05-15T23:06:29.001Z,11.02
2019-05-15T23:09:11.674Z,11.02
2019-05-15T23:11:45.431Z,11.01
2019-05-15T23:14:17.994Z,10.94
2019-05-15T23:16:48.521Z,10.88
2019-05-15T23:19:19.235Z,10.84
2019-05-15T23:21:52.040Z,10.78
2019-05-15T23:24:23.804Z,10.72
2019-05-15T23:26:54.479Z,10.67
2019-05-15T23:29:30.456Z,10.66
2019-05-15T23:32:08.031Z,10.61
2019-05-15T23:34:38.746Z,10.63
2019-05-15T23:37:12.484Z,10.58
2019-05-15T23:39:43.079Z,10.57
2019-05-15T23:42:13.757Z,10.56
2019-05-15T23:44:44.334Z,10.53
2019-05-15T23:47:14.936Z,10.49
2019-05-15T23:49:45.533Z,10.46
2019-05-15T23:52:16.152Z,10.46
2019-05-15T23:54:46.743Z,10.43
2019-05-15T23:57:18.016Z,10.35
2019-05-15T23:59:48.723Z,10.35
